Time;durP1;ratioP1;P1;durP2;ratioP2;P2;SDS_P1;SDS_P2;PMS_P1;PMS_P2;Temp;Humidity;BMP_temperature;BMP_pressure;BME280_temperature;BME280_humidity;BME280_pressure;Samples;Min_cycle;Max_cycle;Signal;HPM_P1;HPM_P2
2022/01/03 00:01:57;;;;;;;11.48;2.00;;;;;;;10.32;73.35;101037.94;5092722;28;20094;-72
2022/01/03 00:04:24;;;;;;;11.43;2.40;;;;;;;10.33;73.32;101044.91;5094920;28;20103;-72
2022/01/03 00:06:51;;;;;;;13.82;2.42;;;;;;;10.33;73.11;101043.16;5094853;28;20388;-72
2022/01/03 00:09:19;;;;;;;13.95;2.60;;;;;;;10.34;73.32;101042.28;5091927;28;20051;-73
2022/01/03 00:11:46;;;;;;;14.55;2.75;;;;;;;10.34;73.17;101050.19;5094655;28;20140;-72
2022/01/03 00:14:13;;;;;;;15.95;2.67;;;;;;;10.31;73.39;101058.16;5096265;28;20402;-71
2022/01/03 00:16:40;;;;;;;17.23;3.08;;;;;;;10.32;73.18;101046.72;5087104;28;20048;-72
2022/01/03 00:19:07;;;;;;;16.20;2.97;;;;;;;10.30;73.29;101051.16;5095652;28;20052;-72
2022/01/03 00:21:45;;;;;;;13.45;2.40;;;;;;;10.27;73.58;101061.78;5096246;28;20047;-72
2022/01/03 00:24:13;;;;;;;19.48;3.08;;;;;;;10.21;73.74;101062.81;5096190;28;20127;-73
2022/01/03 00:26:49;;;;;;;14.45;2.47;;;;;;;10.17;74.04;101069.03;5088982;28;20040;-72
2022/01/03 00:29:22;;;;;;;17.42;2.88;;;;;;;10.19;73.76;101066.34;5095738;28;20058;-70
2022/01/03 00:31:55;;;;;;;18.48;2.88;;;;;;;10.20;74.03;101065.47;5094770;28;20044;-71
2022/01/03 00:34:27;;;;;;;13.63;3.17;;;;;;;10.21;73.78;101059.28;5095341;28;20525;-71
2022/01/03 00:36:58;;;;;;;16.52;2.60;;;;;;;10.23;73.94;101068.03;5093465;28;20090;-71
2022/01/03 00:39:26;;;;;;;16.98;2.67;;;;;;;10.24;73.82;101061.84;5090047;28;20044;-71
2022/01/03 00:41:53;;;;;;;19.65;3.08;;;;;;;10.23;73.85;101066.25;5094744;28;20057;-71
2022/01/03 00:44:22;;;;;;;14.40;3.10;;;;;;;10.22;73.87;101064.53;5092589;28;20041;-71
2022/01/03 00:46:52;;;;;;;18.38;2.65;;;;;;;10.19;73.76;101071.63;5094529;28;20051;-71
2022/01/03 00:49:19;;;;;;;18.58;3.63;;;;;;;10.19;74.12;101071.63;5094911;28;20554;-71
2022/01/03 00:51:46;;;;;;;16.17;3.30;;;;;;;10.20;73.92;101079.50;5100365;28;20139;-72
2022/01/03 00:54:13;;;;;;;18.73;2.88;;;;;;;10.23;73.75;101079.41;5095221;28;20068;-70
2022/01/03 00:56:47;;;;;;;16.80;3.17;;;;;;;10.25;73.81;101080.25;5091999;28;20056;-70
2022/01/03 00:59:32;;;;;;;12.95;2.70;;;;;;;10.25;73.80;101069.72;5090013;28;20106;-66
2022/01/03 01:02:01;;;;;;;11.30;2.80;;;;;;;10.24;73.64;101089.06;5093953;28;20056;-66
2022/01/03 01:04:29;;;;;;;19.08;2.97;;;;;;;10.24;73.79;101091.69;5091775;28;20053;-67
2022/01/03 01:06:58;;;;;;;15.32;3.10;;;;;;;10.23;73.65;101086.47;5090751;28;20049;-66
2022/01/03 01:09:28;;;;;;;15.38;3.35;;;;;;;10.21;73.58;101088.28;5086990;28;20068;-66
2022/01/03 01:12:00;;;;;;;14.75;2.90;;;;;;;10.21;73.86;101090.91;5093329;28;20045;-67
2022/01/03 01:14:35;;;;;;;18.90;3.20;;;;;;;10.20;73.81;101094.44;5092536;28;20526;-67
2022/01/03 01:17:03;;;;;;;18.35;2.83;;;;;;;10.19;73.36;101083.03;5091198;28;20380;-67
2022/01/03 01:19:31;;;;;;;15.77;2.83;;;;;;;10.15;73.79;101080.53;5092639;28;20044;-66
2022/01/03 01:21:58;;;;;;;16.58;2.92;;;;;;;10.13;73.69;101088.44;5093220;28;20040;-72
2022/01/03 01:24:32;;;;;;;12.13;3.05;;;;;;;10.16;73.42;101095.44;5092876;28;20056;-72
2022/01/03 01:29:48;;;;;;;16.02;3.28;;;;;;;10.18;73.10;101091.84;5094193;28;20075;-73
2022/01/03 01:32:19;;;;;;;16.50;2.88;;;;;;;10.20;73.09;101099.72;5094136;28;20087;-72
2022/01/03 01:34:50;;;;;;;18.63;3.15;;;;;;;10.20;72.98;101107.63;5093687;28;20049;-72
2022/01/03 01:37:21;;;;;;;22.90;3.33;;;;;;;10.20;73.04;101113.75;5093975;28;20068;-73
2022/01/03 01:39:49;;;;;;;17.10;3.42;;;;;;;10.23;72.67;101118.09;5093834;28;20111;-72
2022/01/03 01:42:19;;;;;;;16.40;3.05;;;;;;;10.24;72.73;101104.88;5092788;28;20104;-72
2022/01/03 01:44:53;;;;;;;15.52;2.75;;;;;;;10.25;72.37;101111.88;5093156;28;20045;-72
2022/01/03 01:47:27;;;;;;;15.35;3.30;;;;;;;10.27;72.43;101119.75;5093866;28;20132;-72
2022/01/03 01:49:56;;;;;;;15.25;3.25;;;;;;;10.30;72.51;101095.94;5093219;28;20052;-72
2022/01/03 01:52:25;;;;;;;17.92;3.22;;;;;;;10.31;72.30;101113.47;5094148;28;20040;-72
2022/01/03 01:55:00;;;;;;;;;;;;;;;10.29;72.21;101111.81;5093177;28;20052;-72
2022/01/03 01:58:04;;;;;;;22.27;3.97;;;;;;;10.31;72.26;101112.63;5094612;28;19963;-73
2022/01/03 02:00:45;;;;;;;16.30;3.38;;;;;;;10.35;71.93;101107.25;5095988;28;20049;-71
2022/01/03 02:03:57;;;;;;;17.95;3.42;;;;;;;10.37;71.76;101113.38;5095697;28;20438;-70
2022/01/03 02:06:43;;;;;;;17.48;3.90;;;;;;;10.35;72.11;101119.53;5102181;28;20514;-70
2022/01/03 02:09:20;;;;;;;13.45;3.40;;;;;;;10.36;72.23;101116.00;5095814;28;20143;-70
2022/01/03 02:11:57;;;;;;;15.98;3.25;;;;;;;10.40;71.47;101115.06;5095420;28;20048;-70
2022/01/03 02:14:36;;;;;;;14.98;3.00;;;;;;;10.38;71.37;101103.69;5094027;28;20045;-71
2022/01/03 02:17:07;;;;;;;17.30;3.72;;;;;;;10.34;71.28;101108.16;5095858;28;20549;-71
2022/01/03 02:19:37;;;;;;;15.30;3.30;;;;;;;10.33;71.73;101123.97;5095982;28;20076;-71
2022/01/03 02:22:05;;;;;;;17.63;3.60;;;;;;;10.29;71.34;101117.94;5090999;28;20044;-70
2022/01/03 02:24:40;;;;;;;17.70;3.75;;;;;;;10.28;71.56;101110.91;5097088;28;20070;-72
2022/01/03 02:27:07;;;;;;;15.98;3.20;;;;;;;10.29;71.67;101114.44;5097572;28;20048;-72
2022/01/03 02:29:34;;;;;;;18.55;3.30;;;;;;;10.22;71.80;101114.59;5097970;28;20762;-72
2022/01/03 02:32:01;;;;;;;19.45;3.70;;;;;;;10.18;72.13;101107.66;5095025;28;20047;-72
2022/01/03 02:34:29;;;;;;;18.17;3.53;;;;;;;10.13;72.04;101117.44;5089903;28;20102;-71
2022/01/03 02:36:58;;;;;;;20.02;3.67;;;;;;;10.09;72.30;101113.16;5095924;28;20083;-72
2022/01/03 02:39:25;;;;;;;13.95;3.28;;;;;;;10.02;72.56;101114.22;5099315;28;20501;-71
2022/01/03 02:41:51;;;;;;;19.17;3.67;;;;;;;9.97;72.63;101109.03;5096622;28;20048;-70
2022/01/03 02:44:19;;;;;;;16.83;3.03;;;;;;;9.94;73.29;101111.75;5085729;28;20095;-71
2022/01/03 02:46:46;;;;;;;18.75;3.42;;;;;;;9.93;72.67;101107.38;5092990;28;20506;-73
2022/01/03 02:49:14;;;;;;;17.48;3.08;;;;;;;9.94;73.03;101109.13;5096965;28;20049;-74
2022/01/03 02:51:45;;;;;;;18.45;3.33;;;;;;;9.94;72.72;101099.44;5096018;28;20045;-73
2022/01/03 02:54:14;;;;;;;22.00;3.43;;;;;;;9.90;73.15;101104.81;5095371;28;20075;-74
2022/01/03 02:56:42;;;;;;;24.05;3.70;;;;;;;9.92;73.27;101105.66;5095202;28;20585;-70
2022/01/03 02:59:16;;;;;;;15.13;2.75;;;;;;;9.94;72.90;101101.22;5092569;28;20124;-71
2022/01/03 03:01:44;;;;;;;17.58;3.53;;;;;;;9.93;73.02;101110.00;5107527;28;20103;-72
2022/01/03 03:04:13;;;;;;;12.80;2.78;;;;;;;9.91;73.13;101115.31;5095000;28;20079;-71
2022/01/03 03:06:41;;;;;;;16.88;2.92;;;;;;;9.90;73.24;101105.69;5093808;28;20188;-69
2022/01/03 03:09:08;;;;;;;15.85;2.90;;;;;;;9.88;73.55;101111.88;5093463;28;20057;-68
2022/01/03 03:11:38;;;;;;;20.75;3.58;;;;;;;9.91;73.45;101117.97;5096051;28;20041;-73
2022/01/03 03:14:06;;;;;;;17.77;3.42;;;;;;;9.91;73.49;101120.59;5095258;28;20491;-75
2022/01/03 03:16:34;;;;;;;22.38;3.33;;;;;;;9.90;73.56;101116.22;5097774;28;20049;-73
2022/01/03 03:19:02;;;;;;;17.02;3.13;;;;;;;9.90;73.67;101115.34;5087410;28;20133;-72
2022/01/03 03:21:31;;;;;;;15.38;2.80;;;;;;;9.94;73.36;101117.00;5097391;28;20052;-77
2022/01/03 03:23:58;;;;;;;19.40;2.95;;;;;;;9.93;73.51;101118.75;5096161;28;20036;-75
2022/01/03 03:26:26;;;;;;;17.33;3.15;;;;;;;9.94;73.72;101124.91;5094240;28;20060;-71
2022/01/03 03:28:53;;;;;;;14.00;3.17;;;;;;;9.92;73.84;101130.19;5096743;28;20475;-69
2022/01/03 03:31:22;;;;;;;10.00;2.50;;;;;;;9.93;73.57;101125.81;5094378;28;20059;-68
2022/01/03 03:33:48;;;;;;;23.98;3.80;;;;;;;9.94;73.71;101114.38;5094684;28;20537;-74
2022/01/03 03:36:16;;;;;;;15.07;3.15;;;;;;;9.95;73.49;101126.66;5096189;28;20499;-72
2022/01/03 03:38:42;;;;;;;16.58;3.00;;;;;;;9.91;73.63;101130.25;5093559;28;20047;-72
2022/01/03 03:41:14;;;;;;;19.20;2.72;;;;;;;9.87;73.44;101116.28;5092931;28;20072;-69
2022/01/03 03:43:48;;;;;;;11.68;3.30;;;;;;;9.85;73.65;101109.34;5094334;28;20048;-69
2022/01/03 03:46:15;;;;;;;25.50;3.70;;;;;;;9.81;73.52;101119.06;5095627;28;20048;-69
2022/01/03 03:48:42;;;;;;;19.05;3.53;;;;;;;9.76;73.60;101124.44;5094625;28;20052;-69
2022/01/03 03:51:12;;;;;;;19.05;3.67;;;;;;;9.75;73.83;101121.81;5095630;28;20125;-72
2022/01/03 03:53:39;;;;;;;19.95;3.55;;;;;;;9.72;73.71;101128.03;5091483;28;20053;-70
2022/01/03 03:56:07;;;;;;;14.77;3.72;;;;;;;9.71;74.04;101125.44;5092040;28;20052;-69
2022/01/03 03:58:35;;;;;;;17.05;3.60;;;;;;;9.73;73.91;101124.50;5095080;28;20071;-72
2022/01/03 04:01:02;;;;;;;18.30;3.28;;;;;;;9.73;73.87;101118.34;5095801;28;20055;-71
2022/01/03 04:03:43;;;;;;;21.50;4.10;;;;;;;9.74;73.95;101125.34;5098162;28;20110;-73
2022/01/03 04:06:12;;;;;;;14.50;2.83;;;;;;;9.73;74.06;101113.09;5092295;28;20486;-68
2022/01/03 04:08:39;;;;;;;19.15;3.35;;;;;;;9.73;73.89;101121.88;5093711;28;20044;-73
2022/01/03 04:11:06;;;;;;;19.42;4.05;;;;;;;9.77;73.84;101120.03;5095156;28;20118;-73
2022/01/03 04:13:35;;;;;;;20.85;3.28;;;;;;;9.77;73.97;101115.63;5094392;28;20498;-71
2022/01/03 04:16:04;;;;;;;18.48;3.53;;;;;;;9.77;73.79;101112.97;5110843;27;20116;-69
2022/01/03 04:18:31;;;;;;;19.70;3.63;;;;;;;9.79;73.96;101100.66;5094286;28;20068;-69
2022/01/03 04:20:59;;;;;;;20.23;3.35;;;;;;;9.82;73.81;101104.97;5110175;28;20123;-69
2022/01/03 04:23:26;;;;;;;22.30;3.88;;;;;;;9.84;73.68;101105.81;5095265;28;20051;-71
2022/01/03 04:25:53;;;;;;;16.13;3.97;;;;;;;9.83;73.54;101100.59;5095192;28;20482;-68
2022/01/03 04:28:20;;;;;;;20.30;3.53;;;;;;;9.83;73.55;101109.34;5092706;28;20056;-69
2022/01/03 04:30:47;;;;;;;16.90;3.95;;;;;;;9.84;73.54;101105.81;5094255;28;20055;-71
2022/01/03 04:33:14;;;;;;;18.73;3.65;;;;;;;9.87;73.69;101108.38;5094979;28;20479;-70
2022/01/03 04:35:41;;;;;;;20.02;3.70;;;;;;;9.89;73.48;101109.22;5094645;28;20136;-69
2022/01/03 04:38:07;;;;;;;16.88;3.40;;;;;;;9.89;73.66;101103.06;5099771;28;20044;-72
2022/01/03 04:40:34;;;;;;;19.95;3.38;;;;;;;9.92;73.70;101103.00;5089563;28;20874;-70
2022/01/03 04:43:01;;;;;;;18.27;3.90;;;;;;;9.92;73.85;101103.00;5093439;28;20044;-69
2022/01/03 04:45:28;;;;;;;20.13;3.28;;;;;;;9.92;73.68;101095.97;5094821;28;20090;-71
2022/01/03 04:47:55;;;;;;;22.75;3.90;;;;;;;9.93;73.71;101102.13;5094411;28;20048;-69
2022/01/03 04:50:24;;;;;;;19.55;4.50;;;;;;;9.93;73.77;101108.22;5093795;28;20078;-69
2022/01/03 04:52:51;;;;;;;25.23;3.78;;;;;;;9.91;73.68;101102.16;5095695;28;20123;-72
2022/01/03 04:55:18;;;;;;;18.10;3.70;;;;;;;9.91;73.86;101109.19;5094766;28;20053;-73
2022/01/03 04:57:45;;;;;;;23.33;3.70;;;;;;;9.92;73.83;101103.88;5094468;28;20068;-72
2022/01/03 05:00:12;;;;;;;25.48;3.88;;;;;;;9.92;73.73;101098.59;5096006;28;20467;-74
2022/01/03 05:02:39;;;;;;;18.02;3.15;;;;;;;9.93;73.69;101089.78;5094986;28;20795;-75
2022/01/03 05:05:07;;;;;;;22.42;3.25;;;;;;;9.97;73.54;101100.28;5096318;28;20036;-73
2022/01/03 05:07:35;;;;;;;19.17;3.20;;;;;;;9.97;73.56;101097.63;5094471;28;20048;-74
2022/01/03 05:10:03;;;;;;;22.15;3.30;;;;;;;9.97;73.50;101095.84;5095833;28;20045;-74
2022/01/03 05:12:30;;;;;;;21.15;3.60;;;;;;;9.97;73.47;101092.38;5095724;28;20041;-74
2022/01/03 05:14:57;;;;;;;16.20;2.97;;;;;;;9.95;73.68;101095.06;5096584;28;20123;-73
2022/01/03 05:17:24;;;;;;;17.25;3.60;;;;;;;9.96;73.61;101091.53;5096051;28;20036;-73
2022/01/03 05:19:51;;;;;;;21.88;3.47;;;;;;;9.98;73.63;101102.00;5094217;28;20538;-74
2022/01/03 05:22:17;;;;;;;21.23;3.50;;;;;;;10.01;73.31;101094.03;5094600;28;20122;-67
2022/01/03 05:24:45;;;;;;;19.30;3.40;;;;;;;10.02;73.01;101087.88;5077076;28;20449;-76
2022/01/03 05:27:12;;;;;;;15.77;3.08;;;;;;;10.04;73.12;101088.69;5094523;28;20098;-76
2022/01/03 05:29:39;;;;;;;31.73;3.72;;;;;;;10.02;73.45;101087.88;5095552;28;20053;-74
2022/01/03 05:32:06;;;;;;;19.17;3.30;;;;;;;9.96;73.23;101073.09;5095124;28;20553;-76
2022/01/03 05:34:33;;;;;;;18.48;3.00;;;;;;;9.92;73.49;101071.41;5098460;28;20106;-75
2022/01/03 05:37:01;;;;;;;20.02;3.28;;;;;;;9.84;73.60;101062.84;5099335;28;20037;-74
2022/01/03 05:39:31;;;;;;;21.70;3.30;;;;;;;9.80;73.75;101062.03;5097028;28;20108;-70
2022/01/03 05:41:58;;;;;;;17.98;3.35;;;;;;;9.77;73.87;101084.03;5094521;28;20525;-75
2022/01/03 05:44:25;;;;;;;18.95;3.25;;;;;;;9.76;73.90;101073.53;5099272;28;20062;-74
2022/01/03 05:46:53;;;;;;;28.02;3.80;;;;;;;9.76;74.11;101076.16;5097304;28;20479;-73
2022/01/03 05:49:20;;;;;;;22.75;3.25;;;;;;;9.77;73.79;101081.38;5097717;28;20486;-74
2022/01/03 05:51:49;;;;;;;20.52;3.13;;;;;;;9.78;73.81;101077.84;5097411;28;20049;-73
2022/01/03 05:54:15;;;;;;;19.38;3.13;;;;;;;9.82;73.81;101078.66;5087133;28;20491;-74
2022/01/03 05:56:42;;;;;;;20.70;3.22;;;;;;;9.87;73.95;101078.56;5092130;28;20047;-70
2022/01/03 05:59:10;;;;;;;20.92;3.47;;;;;;;9.88;74.01;101080.28;5094525;28;20077;-72
2022/01/03 06:01:39;;;;;;;18.98;2.95;;;;;;;9.91;73.83;101073.19;5086220;28;20139;-69
2022/01/03 06:05:10;;;;;;;18.48;3.35;;;;;;;9.93;73.88;101062.63;5094768;28;20120;-70
2022/01/03 06:07:08;;;;;;;20.15;2.78;;;;;;;9.96;73.69;101057.28;5083345;28;20136;-71
2022/01/03 06:09:42;;;;;;;20.55;3.92;;;;;;;9.98;73.74;101062.50;5088682;28;20523;-68
2022/01/03 06:12:11;;;;;;;14.43;2.92;;;;;;;9.98;73.68;101052.81;5099394;28;20055;-69
2022/01/03 06:14:46;;;;;;;15.27;3.13;;;;;;;10.00;73.70;101063.34;5085505;28;20414;-72
2022/01/03 06:17:16;;;;;;;21.67;3.50;;;;;;;10.00;73.68;101058.91;5108127;27;20294;-73
2022/01/03 06:19:47;;;;;;;20.15;3.15;;;;;;;10.01;73.69;101054.53;5095876;28;20103;-72
2022/01/03 06:22:18;;;;;;;20.58;3.22;;;;;;;10.02;73.63;101056.25;5094309;28;20048;-72
2022/01/03 06:24:50;;;;;;;22.38;3.25;;;;;;;10.06;73.53;101065.81;5095257;28;20099;-72
2022/01/03 06:27:18;;;;;;;18.15;2.72;;;;;;;10.08;73.45;101056.09;5109219;28;20056;-75
2022/01/03 06:29:45;;;;;;;20.42;2.63;;;;;;;10.09;73.22;101065.75;5098710;28;20048;-75
2022/01/03 06:32:12;;;;;;;19.63;3.45;;;;;;;10.09;73.19;101065.75;5080139;28;20037;-76
2022/01/03 06:34:39;;;;;;;16.58;2.90;;;;;;;10.10;73.28;101063.06;5078563;28;20041;-75
2022/01/03 06:37:06;;;;;;;16.50;2.97;;;;;;;10.11;73.23;101050.75;5106115;28;20068;-77
2022/01/03 06:39:42;;;;;;;20.85;3.13;;;;;;;10.12;73.34;101047.22;5077195;28;20049;-76
2022/01/03 06:42:10;;;;;;;13.98;2.90;;;;;;;10.14;72.88;101052.44;5096503;28;20044;-75
2022/01/03 06:44:38;;;;;;;17.30;3.03;;;;;;;10.17;73.12;101044.47;5096963;28;20036;-72
2022/01/03 06:47:05;;;;;;;21.10;3.42;;;;;;;10.15;72.93;101049.75;5095552;28;20041;-70
2022/01/03 06:49:32;;;;;;;18.08;2.72;;;;;;;10.16;72.91;101046.22;5095092;28;20131;-71
2022/01/03 06:51:58;;;;;;;16.52;2.72;;;;;;;10.18;72.54;101043.53;5093897;28;20169;-71
2022/01/03 06:54:27;;;;;;;20.30;3.10;;;;;;;10.17;72.74;101044.47;5093146;28;20048;-71
2022/01/03 06:56:58;;;;;;;19.15;2.78;;;;;;;10.16;72.85;101037.47;5092563;28;20052;-71
2022/01/03 06:59:34;;;;;;;23.40;3.20;;;;;;;10.16;72.80;101048.00;5091528;28;20052;-70
2022/01/03 07:02:04;;;;;;;15.20;2.60;;;;;;;10.13;73.08;101043.66;5094541;28;20045;-72
2022/01/03 07:04:32;;;;;;;17.05;3.17;;;;;;;10.15;73.11;101046.28;5093497;28;20058;-71
2022/01/03 07:07:05;;;;;;;19.40;2.53;;;;;;;10.15;72.95;101044.50;5095433;28;20040;-69
2022/01/03 07:09:32;;;;;;;21.95;3.42;;;;;;;10.13;72.61;101040.19;5092415;28;20049;-74
2022/01/03 07:11:59;;;;;;;19.35;2.95;;;;;;;10.10;72.91;101038.50;5093045;28;20051;-69
2022/01/03 07:19:58;;;;;;;16.63;2.92;;;;;;;10.10;73.17;101043.75;5090783;28;20053;-67
2022/01/03 07:22:26;;;;;;;18.13;2.85;;;;;;;10.10;73.65;101046.41;5092907;28;20048;-67
2022/01/03 07:24:54;;;;;;;17.15;2.97;;;;;;;10.13;73.99;101048.94;5090053;28;20124;-66
2022/01/03 07:27:21;;;;;;;15.15;2.45;;;;;;;10.13;74.08;101038.41;5091773;28;20554;-66
2022/01/03 07:29:50;;;;;;;15.73;2.65;;;;;;;10.16;74.24;101045.38;5087512;28;20049;-66
2022/01/03 07:32:17;;;;;;;18.58;2.70;;;;;;;10.18;74.08;101030.38;5090050;28;20056;-67
2022/01/03 07:34:44;;;;;;;15.15;2.17;;;;;;;10.21;74.19;101041.72;5091820;28;20106;-71
2022/01/03 07:37:11;;;;;;;11.52;2.25;;;;;;;10.18;73.93;101036.53;5090524;28;20053;-66
2022/01/03 07:39:38;;;;;;;11.38;2.58;;;;;;;10.15;73.86;101041.00;5087558;28;20055;-65
2022/01/03 07:42:05;;;;;;;16.92;2.53;;;;;;;10.09;74.52;101042.88;5077967;28;20055;-67
2022/01/03 07:44:40;;;;;;;19.35;3.00;;;;;;;10.05;74.26;101032.47;5091766;28;20103;-67
2022/01/03 07:47:07;;;;;;;16.98;3.13;;;;;;;10.00;74.26;101043.09;5088636;28;20609;-67
2022/01/03 07:49:34;;;;;;;12.52;2.90;;;;;;;9.99;74.55;101049.28;5091923;28;20048;-66
2022/01/03 07:52:00;;;;;;;16.20;3.00;;;;;;;9.99;74.92;101041.38;5093089;28;20048;-67
2022/01/03 07:54:27;;;;;;;13.98;2.53;;;;;;;10.04;75.13;101047.41;5084271;28;20841;-68
2022/01/03 07:56:55;;;;;;;16.25;2.35;;;;;;;10.12;75.19;101047.22;5091137;28;20459;-66
2022/01/03 07:59:21;;;;;;;17.45;3.35;;;;;;;10.16;74.77;101045.38;5089998;28;20083;-68
2022/01/03 08:01:49;;;;;;;11.85;2.33;;;;;;;10.15;74.63;101044.50;5091566;28;20132;-67
2022/01/03 08:04:16;;;;;;;13.57;2.45;;;;;;;10.17;74.64;101058.50;5085556;28;20800;-67
2022/01/03 08:06:45;;;;;;;15.57;2.70;;;;;;;10.18;74.81;101054.09;5089426;28;20049;-66
2022/01/03 08:09:12;;;;;;;8.93;2.13;;;;;;;10.20;74.66;101055.81;5090827;28;20524;-67
2022/01/03 08:11:39;;;;;;;15.05;2.35;;;;;;;10.22;74.34;101063.66;5082848;28;20569;-66
2022/01/03 08:14:05;;;;;;;10.30;1.95;;;;;;;10.21;74.15;101078.63;5085353;28;20414;-66
2022/01/03 08:16:32;;;;;;;16.27;2.28;;;;;;;10.18;74.08;101078.69;5089339;28;20103;-67
2022/01/03 08:18:59;;;;;;;15.30;2.58;;;;;;;10.14;74.08;101079.66;5093071;28;20056;-68
2022/01/03 08:21:28;;;;;;;13.75;2.45;;;;;;;10.09;74.11;101073.63;5090022;28;20049;-67
2022/01/03 08:23:55;;;;;;;15.85;2.70;;;;;;;10.05;74.22;101072.84;5078080;28;20052;-68
2022/01/03 08:26:21;;;;;;;17.55;2.70;;;;;;;10.05;74.41;101064.06;5079182;28;20178;-68
2022/01/03 08:28:48;;;;;;;18.40;2.72;;;;;;;10.05;74.42;101067.59;5092787;28;20050;-68
2022/01/03 08:31:15;;;;;;;12.98;2.35;;;;;;;10.02;74.43;101058.91;5087377;28;20123;-67
2022/01/03 08:33:43;;;;;;;14.88;3.25;;;;;;;9.99;74.47;101061.59;5090638;28;20047;-68
2022/01/03 08:36:11;;;;;;;17.00;2.42;;;;;;;9.98;74.69;101062.50;5088532;28;20102;-68
2022/01/03 08:38:37;;;;;;;15.68;2.50;;;;;;;9.97;74.78;101058.13;5084611;28;20056;-68
2022/01/03 08:41:06;;;;;;;12.75;2.75;;;;;;;9.96;74.58;101057.28;5085628;28;20608;-66
2022/01/03 08:43:32;;;;;;;19.15;2.70;;;;;;;9.96;74.72;101052.00;5087805;28;20060;-66
2022/01/03 08:45:59;;;;;;;12.63;2.63;;;;;;;10.00;74.52;101056.28;5080087;28;20043;-68
2022/01/03 08:48:28;;;;;;;14.85;3.40;;;;;;;10.01;74.31;101058.00;5091286;28;20045;-69
2022/01/03 08:50:55;;;;;;;18.50;2.50;;;;;;;10.03;74.26;101057.97;5083983;28;20044;-68
2022/01/03 08:53:26;;;;;;;17.77;2.78;;;;;;;10.05;73.94;101053.53;5078173;28;20048;-67
2022/01/03 08:55:59;;;;;;;19.13;2.80;;;;;;;10.11;74.08;101050.75;5091894;28;20533;-68
2022/01/03 08:58:27;;;;;;;15.00;2.92;;;;;;;10.12;74.03;101047.22;5081493;28;20043;-67
2022/01/03 09:00:54;;;;;;;16.88;2.88;;;;;;;10.10;73.71;101052.50;5092835;28;20040;-67
2022/01/03 09:03:22;;;;;;;12.32;2.90;;;;;;;10.13;73.90;101058.63;5085914;28;20501;-67
2022/01/03 09:05:49;;;;;;;24.75;3.47;;;;;;;10.12;73.91;101049.88;5080237;28;20049;-67
2022/01/03 09:08:19;;;;;;;15.95;3.63;;;;;;;10.12;73.71;101046.34;5088496;28;20036;-69
2022/01/03 09:10:46;;;;;;;15.00;2.50;;;;;;;10.11;73.84;101056.03;5080591;28;20457;-68
2022/01/03 09:13:12;;;;;;;15.30;3.17;;;;;;;10.12;73.92;101063.03;5081372;28;20189;-68
2022/01/03 09:15:44;;;;;;;12.95;2.65;;;;;;;10.12;73.80;101060.41;5084442;28;20051;-67
2022/01/03 09:18:13;;;;;;;16.17;2.78;;;;;;;10.13;73.76;101048.09;5084902;28;20036;-67
2022/01/03 09:20:40;;;;;;;14.50;2.67;;;;;;;10.22;73.62;101047.84;5092174;28;20098;-66
2022/01/03 09:23:15;;;;;;;17.17;2.72;;;;;;;10.26;73.57;101044.25;5084134;28;20056;-66
2022/01/03 09:30:56;;;;;;;18.52;2.53;;;;;;;10.30;73.37;101034.47;5085089;28;20593;-67
2022/01/03 09:33:23;;;;;;;18.58;2.85;;;;;;;10.29;73.33;101028.34;5092653;28;20052;-66
2022/01/03 09:35:51;;;;;;;16.10;2.83;;;;;;;10.34;73.21;101029.09;5091399;28;20548;-67
2022/01/03 09:38:18;;;;;;;19.73;2.97;;;;;;;10.38;73.28;101035.16;5090967;28;20051;-65
2022/01/03 09:40:47;;;;;;;15.70;2.70;;;;;;;10.47;73.15;101034.06;5082146;28;20075;-68
2022/01/03 09:43:18;;;;;;;15.30;3.20;;;;;;;10.50;72.72;101034.84;5086310;28;20478;-66
2022/01/03 09:45:48;;;;;;;20.10;2.80;;;;;;;10.63;72.61;101037.16;5091228;28;20139;-68
2022/01/03 09:48:15;;;;;;;15.07;2.95;;;;;;;10.72;72.41;101021.09;5091728;28;20115;-67
2022/01/03 09:50:44;;;;;;;20.45;2.83;;;;;;;10.78;72.42;101028.81;5073057;28;20152;-66
2022/01/03 09:53:12;;;;;;;16.23;2.70;;;;;;;10.81;71.93;101033.13;5088707;28;20041;-67
2022/01/03 09:55:42;;;;;;;15.70;2.90;;;;;;;10.84;72.07;101019.88;5092576;28;20053;-66
2022/01/03 09:58:10;;;;;;;16.73;2.72;;;;;;;10.91;71.95;101021.41;5080930;28;20045;-70
2022/01/03 10:00:37;;;;;;;18.63;2.97;;;;;;;10.92;71.72;101009.94;5081950;28;20049;-69
2022/01/03 10:03:04;;;;;;;15.27;2.58;;;;;;;10.93;71.71;101005.56;5089123;28;20053;-67
2022/01/03 10:05:32;;;;;;;12.70;2.60;;;;;;;11.04;71.67;101006.09;5085068;28;20044;-72
2022/01/03 10:08:00;;;;;;;12.77;2.33;;;;;;;11.18;70.93;100998.63;5089311;28;20079;-73
2022/01/03 10:10:28;;;;;;;16.42;2.50;;;;;;;11.28;70.21;101004.50;5092612;28;20471;-69
2022/01/03 10:12:55;;;;;;;18.48;2.83;;;;;;;11.38;70.38;101002.44;5086578;28;20095;-67
2022/01/03 10:15:23;;;;;;;15.90;3.00;;;;;;;11.47;69.10;101011.84;5093287;28;20787;-71
2022/01/03 10:17:51;;;;;;;19.35;3.03;;;;;;;11.47;69.63;101004.78;5094398;28;20106;-69
2022/01/03 10:20:18;;;;;;;15.77;2.92;;;;;;;11.46;69.65;101000.41;5082423;28;20041;-66
2022/01/03 10:22:45;;;;;;;13.57;2.60;;;;;;;11.46;69.36;100995.13;5092559;28;20082;-67
2022/01/03 10:25:23;;;;;;;23.95;3.20;;;;;;;11.43;69.41;100994.38;5089980;28;20037;-67
2022/01/03 10:27:53;;;;;;;22.20;3.42;;;;;;;11.39;69.67;100988.31;5086826;28;20036;-66
2022/01/03 10:30:32;;;;;;;18.88;2.88;;;;;;;11.36;69.84;100985.78;5088973;28;20098;-67
2022/01/03 10:33:00;;;;;;;19.30;3.15;;;;;;;11.34;69.95;100988.47;5095271;28;20426;-66
2022/01/03 10:35:27;;;;;;;22.27;3.30;;;;;;;11.32;69.69;100985.00;5089918;28;20468;-66
2022/01/03 10:37:54;;;;;;;18.45;2.83;;;;;;;11.29;69.98;100992.16;5088380;28;20044;-68
2022/01/03 10:40:28;;;;;;;15.80;3.08;;;;;;;11.25;70.01;101006.34;5084055;28;20151;-67
2022/01/03 10:43:19;;;;;;;17.67;3.13;;;;;;;11.23;70.22;101002.91;5090948;28;20072;-68
2022/01/03 10:45:50;;;;;;;15.60;3.00;;;;;;;11.22;70.44;100998.53;5087107;28;20060;-68
2022/01/03 10:48:33;;;;;;;13.40;2.67;;;;;;;11.22;70.06;100998.53;5094398;28;20098;-67
2022/01/03 10:51:02;;;;;;;15.88;3.03;;;;;;;11.13;70.43;100992.66;5091981;28;20137;-66
2022/01/03 10:53:43;;;;;;;12.80;2.70;;;;;;;11.08;70.39;100983.13;5091523;28;20048;-65
2022/01/03 10:56:33;;;;;;;19.80;3.53;;;;;;;11.05;70.58;100981.44;5085462;28;20073;-66
2022/01/03 10:59:14;;;;;;;19.17;2.92;;;;;;;11.01;70.57;100974.53;5094359;28;20060;-66
2022/01/03 11:01:44;;;;;;;16.27;2.70;;;;;;;11.03;70.81;100972.72;5086046;28;20037;-65
2022/01/03 11:04:24;;;;;;;17.50;2.70;;;;;;;11.05;70.50;100975.31;5093092;28;20068;-65
2022/01/03 11:13:21;;;;;;;12.32;2.30;;;;;;;11.09;70.34;100966.41;5087324;28;20052;-69
2022/01/03 11:16:00;;;;;;;17.30;3.17;;;;;;;11.11;70.41;100959.28;5084695;28;20421;-66
2022/01/03 11:18:32;;;;;;;16.15;3.05;;;;;;;11.12;69.85;100961.88;5092410;28;20490;-65
2022/01/03 11:21:16;;;;;;;17.55;3.33;;;;;;;11.13;70.14;100942.50;5091411;27;20040;-67
2022/01/03 11:24:08;;;;;;;15.05;2.75;;;;;;;11.12;69.66;100948.69;5101562;28;20052;-69
2022/01/03 11:26:48;;;;;;;16.45;2.92;;;;;;;11.13;69.63;100944.25;5113110;27;20059;-67
2022/01/03 11:29:18;;;;;;;10.93;2.22;;;;;;;11.11;70.01;100936.41;5109815;27;20465;-73
2022/01/03 11:31:52;;;;;;;16.85;3.13;;;;;;;11.11;69.85;100930.25;5113481;27;20406;-68
2022/01/03 11:34:23;;;;;;;12.15;2.63;;;;;;;11.11;69.82;100935.53;5111421;28;20414;-66
2022/01/03 11:36:59;;;;;;;14.82;2.53;;;;;;;11.11;69.71;100927.63;5109121;28;20079;-66
2022/01/03 11:39:32;;;;;;;14.48;2.80;;;;;;;11.09;69.74;100930.31;5109609;28;20498;-66
2022/01/03 11:42:00;;;;;;;21.90;2.72;;;;;;;11.06;69.87;100930.41;5112843;27;20088;-69
2022/01/03 11:44:28;;;;;;;14.32;2.15;;;;;;;11.03;70.17;100930.50;5113277;27;20043;-66
2022/01/03 11:46:55;;;;;;;14.98;2.85;;;;;;;10.99;70.20;100918.31;5112897;27;20055;-67
2022/01/03 11:49:23;;;;;;;14.70;2.50;;;;;;;10.96;70.50;100921.03;5111427;27;20044;-67
2022/01/03 11:51:51;;;;;;;14.85;3.20;;;;;;;11.04;70.08;100911.09;5113581;28;20482;-67